Time;durP1;ratioP1;P1;durP2;ratioP2;P2;SDS_P1;SDS_P2;PMS_P1;PMS_P2;Temp;Humidity;BMP_temperature;BMP_pressure;BME280_temperature;BME280_humidity;BME280_pressure;Samples;Min_cycle;Max_cycle;Signal;HPM_P1;HPM_P2
2023/09/06 00:00:45;;;;;;;9.40;3.90;;;25.50;1.00;;;;;;5025326;28;20197;-84
2023/09/06 00:03:13;;;;;;;8.30;4.27;;;25.50;1.00;;;;;;5023212;28;20217;-82
2023/09/06 00:05:41;;;;;;;5.77;3.93;;;25.50;1.00;;;;;;5023074;28;20204;-82
2023/09/06 00:08:08;;;;;;;7.27;3.60;;;25.40;1.00;;;;;;5021903;28;20186;-81
2023/09/06 00:10:50;;;;;;;5.57;3.00;;;25.20;1.00;;;;;;5022460;28;20186;-82
2023/09/06 00:13:19;;;;;;;4.50;2.60;;;25.30;1.00;;;;;;5024658;28;20178;-82
2023/09/06 00:15:45;;;;;;;6.60;2.97;;;25.40;1.00;;;;;;5021672;28;20177;-82
2023/09/06 00:18:11;;;;;;;8.30;3.10;;;25.40;1.00;;;;;;5028963;28;20177;-82
2023/09/06 00:20:38;;;;;;;8.23;3.40;;;25.40;1.00;;;;;;5025847;28;20166;-82
2023/09/06 00:23:07;;;;;;;5.23;3.40;;;25.40;1.00;;;;;;5019524;28;20178;-82
2023/09/06 00:25:33;;;;;;;5.30;3.00;;;25.50;1.00;;;;;;5021262;28;20170;-82
2023/09/06 00:28:01;;;;;;;5.47;3.20;;;25.50;1.00;;;;;;5017274;28;20193;-82
2023/09/06 00:30:28;;;;;;;6.17;3.07;;;25.50;1.00;;;;;;5019556;28;20178;-81
2023/09/06 00:32:53;;;;;;;4.50;2.73;;;25.40;1.00;;;;;;5020114;28;20174;-83
2023/09/06 00:35:20;;;;;;;4.30;2.67;;;25.40;1.00;;;;;;5019292;28;20194;-82
2023/09/06 00:37:47;;;;;;;4.40;2.90;;;25.20;1.00;;;;;;5019060;28;20167;-82
2023/09/06 00:40:17;;;;;;;4.83;2.53;;;25.00;1.00;;;;;;5017328;28;20174;-82
2023/09/06 00:42:46;;;;;;;4.20;3.00;;;24.90;1.00;;;;;;5018101;28;20165;-82
2023/09/06 00:45:12;;;;;;;4.53;3.13;;;24.80;1.00;;;;;;5018169;28;20194;-81
2023/09/06 00:47:38;;;;;;;5.27;2.97;;;24.80;1.00;;;;;;5016186;28;20194;-82
2023/09/06 00:50:06;;;;;;;6.77;3.10;;;24.80;1.00;;;;;;5016025;28;20185;-81
2023/09/06 00:52:32;;;;;;;4.30;2.60;;;24.70;1.00;;;;;;5016491;28;20688;-81
2023/09/06 00:55:01;;;;;;;6.27;2.83;;;24.60;1.00;;;;;;5016213;28;20181;-82
2023/09/06 00:57:29;;;;;;;4.83;2.90;;;24.70;1.00;;;;;;5018690;28;20174;-81
2023/09/06 00:59:58;;;;;;;4.90;3.13;;;24.70;1.00;;;;;;5016145;28;20197;-83
2023/09/06 01:02:27;;;;;;;4.07;2.47;;;24.70;1.00;;;;;;5029454;28;20173;-82
2023/09/06 01:04:54;;;;;;;4.37;2.70;;;24.70;1.00;;;;;;5034100;28;20229;-81
2023/09/06 01:07:28;;;;;;;3.87;2.50;;;24.70;1.00;;;;;;5036600;28;20166;-81
2023/09/06 01:09:53;;;;;;;5.07;2.87;;;24.60;1.00;;;;;;5035113;28;20170;-82
2023/09/06 01:12:19;;;;;;;3.90;2.50;;;24.60;1.00;;;;;;5037999;28;20209;-81
2023/09/06 01:14:45;;;;;;;4.50;2.80;;;24.60;1.00;;;;;;5036337;28;20194;-82
2023/09/06 01:17:15;;;;;;;4.90;2.73;;;24.50;1.00;;;;;;5034414;28;20391;-81
2023/09/06 01:19:47;;;;;;;4.50;2.77;;;24.50;1.00;;;;;;5032844;28;20239;-81
2023/09/06 01:22:34;;;;;;;4.00;2.83;;;24.40;1.00;;;;;;5019845;28;20178;-81
2023/09/06 01:25:00;;;;;;;4.53;2.60;;;24.40;1.00;;;;;;5014666;28;20226;-80
2023/09/06 01:27:26;;;;;;;3.93;2.80;;;24.40;1.00;;;;;;5015221;28;20261;-81
2023/09/06 01:29:52;;;;;;;3.60;2.80;;;24.40;1.00;;;;;;5015750;28;20170;-82
2023/09/06 01:32:19;;;;;;;4.20;2.70;;;24.30;1.00;;;;;;5016447;28;20173;-82
2023/09/06 01:34:44;;;;;;;3.10;2.40;;;24.30;1.00;;;;;;5014236;28;20178;-82
2023/09/06 01:37:10;;;;;;;6.30;2.70;;;24.20;1.00;;;;;;5014297;28;20185;-81
2023/09/06 01:39:37;;;;;;;5.23;2.60;;;24.10;1.00;;;;;;5012518;28;20178;-81
2023/09/06 01:42:09;;;;;;;3.43;2.80;;;24.20;1.00;;;;;;5016295;28;20649;-82
2023/09/06 01:44:35;;;;;;;4.40;2.57;;;24.10;1.00;;;;;;5016404;28;20213;-82
2023/09/06 01:47:04;;;;;;;3.90;2.57;;;24.00;1.00;;;;;;5015397;28;20167;-83
2023/09/06 01:49:30;;;;;;;4.53;2.20;;;24.00;1.00;;;;;;5014694;28;20174;-84
2023/09/06 01:51:57;;;;;;;3.77;2.60;;;24.00;1.00;;;;;;5015319;28;20554;-82
2023/09/06 01:54:24;;;;;;;3.97;2.63;;;24.00;1.00;;;;;;5012623;28;20174;-81
2023/09/06 01:56:50;;;;;;;4.23;2.60;;;23.90;1.00;;;;;;5013042;28;20190;-82
2023/09/06 01:59:15;;;;;;;3.87;2.77;;;23.80;1.00;;;;;;5014303;28;20209;-82
2023/09/06 02:01:42;;;;;;;3.93;2.20;;;23.70;1.00;;;;;;5013957;28;20654;-82
2023/09/06 02:04:08;;;;;;;5.33;2.40;;;23.70;1.00;;;;;;5015503;28;20678;-82
2023/09/06 02:06:34;;;;;;;5.90;2.40;;;23.70;1.00;;;;;;5012992;28;20674;-82
2023/09/06 02:09:00;;;;;;;3.30;2.53;;;23.70;1.00;;;;;;5014465;28;20204;-82
2023/09/06 02:11:25;;;;;;;4.80;2.80;;;23.70;1.00;;;;;;5013318;28;20203;-82
2023/09/06 02:13:52;;;;;;;5.73;2.67;;;23.80;1.00;;;;;;5015402;28;20177;-83
2023/09/06 02:16:19;;;;;;;4.50;3.33;;;23.80;1.00;;;;;;5013121;28;20241;-83
2023/09/06 02:18:46;;;;;;;7.07;3.27;;;23.70;1.00;;;;;;5013540;28;20228;-82
2023/09/06 02:21:12;;;;;;;6.00;3.03;;;23.60;1.00;;;;;;5013587;28;20178;-83
2023/09/06 02:23:37;;;;;;;4.33;3.03;;;23.60;1.00;;;;;;5013577;28;20198;-82
2023/09/06 02:26:03;;;;;;;4.03;2.40;;;23.60;1.00;;;;;;5013932;28;20270;-82
2023/09/06 02:28:29;;;;;;;4.77;2.70;;;23.70;1.00;;;;;;5013831;28;20201;-82
2023/09/06 02:30:54;;;;;;;4.97;2.57;;;23.60;1.00;;;;;;5014160;28;20174;-82
2023/09/06 02:33:20;;;;;;;4.20;2.30;;;23.60;1.00;;;;;;5014238;28;20174;-82
2023/09/06 02:35:49;;;;;;;3.70;2.57;;;23.60;1.00;;;;;;5013394;28;20182;-82
2023/09/06 02:38:15;;;;;;;5.13;2.47;;;23.70;1.00;;;;;;5013520;28;20202;-83
2023/09/06 02:40:40;;;;;;;4.77;2.80;;;23.70;1.00;;;;;;5015521;28;20175;-82
2023/09/06 02:43:07;;;;;;;5.03;2.67;;;23.80;1.00;;;;;;5014439;28;20177;-83
2023/09/06 02:45:39;;;;;;;6.00;3.40;;;23.80;1.00;;;;;;5014492;28;20210;-82
2023/09/06 02:48:07;;;;;;;5.80;3.13;;;23.70;1.00;;;;;;5015536;28;20610;-82
2023/09/06 02:50:36;;;;;;;7.30;3.20;;;23.70;1.00;;;;;;5013698;28;20192;-81
2023/09/06 02:53:03;;;;;;;5.20;3.37;;;23.80;1.00;;;;;;5015692;28;20170;-82
2023/09/06 02:55:35;;;;;;;5.87;3.07;;;23.80;1.00;;;;;;5015687;28;20209;-82
2023/09/06 02:58:01;;;;;;;5.63;3.07;;;23.70;1.00;;;;;;5015324;28;20293;-82
2023/09/06 03:00:29;;;;;;;4.70;3.00;;;23.70;1.00;;;;;;5015097;28;20580;-82
2023/09/06 03:03:05;;;;;;;5.80;3.43;;;23.80;1.00;;;;;;5013978;28;20900;-80
2023/09/06 03:05:42;;;;;;;6.80;3.27;;;23.80;1.00;;;;;;5015581;28;20570;-81
2023/09/06 03:08:15;;;;;;;4.97;3.13;;;23.80;1.00;;;;;;5014491;28;20176;-81
2023/09/06 03:10:41;;;;;;;5.53;3.50;;;23.90;1.00;;;;;;5014568;28;20206;-81
2023/09/06 03:13:08;;;;;;;4.80;2.90;;;23.90;1.00;;;;;;5015284;28;20170;-81
2023/09/06 03:15:35;;;;;;;7.37;3.13;;;24.00;1.00;;;;;;5014051;28;20507;-82
2023/09/06 03:18:02;;;;;;;6.73;3.10;;;24.00;1.00;;;;;;5015566;28;20170;-82
2023/09/06 03:20:42;;;;;;;5.53;3.20;;;24.00;1.00;;;;;;5017861;28;20252;-83
2023/09/06 03:23:18;;;;;;;5.60;3.30;;;24.00;1.00;;;;;;5019304;28;20173;-82
2023/09/06 03:25:47;;;;;;;5.80;3.57;;;23.90;1.00;;;;;;5014921;28;20641;-81
2023/09/06 03:28:20;;;;;;;5.17;3.03;;;24.00;1.00;;;;;;5015606;28;20313;-81
2023/09/06 03:30:49;;;;;;;4.40;3.20;;;23.90;1.00;;;;;;5015894;28;20282;-81
2023/09/06 03:33:17;;;;;;;7.70;3.43;;;23.90;1.00;;;;;;5015385;28;20181;-82
2023/09/06 03:35:45;;;;;;;4.33;3.20;;;23.90;1.00;;;;;;5013155;28;20196;-82
2023/09/06 03:38:10;;;;;;;5.67;3.30;;;23.90;1.00;;;;;;5014141;28;20255;-83
2023/09/06 03:40:37;;;;;;;8.70;3.50;;;23.80;1.00;;;;;;5014314;28;20654;-82
2023/09/06 03:43:15;;;;;;;5.93;3.33;;;23.80;1.00;;;;;;5013940;28;20181;-82
2023/09/06 03:45:51;;;;;;;5.77;3.03;;;23.80;1.00;;;;;;5015021;28;20268;-82
2023/09/06 03:48:19;;;;;;;9.57;3.17;;;23.80;1.00;;;;;;5012788;28;20327;-82
2023/09/06 03:50:46;;;;;;;6.87;3.53;;;23.80;1.00;;;;;;5014461;28;20170;-81
2023/09/06 03:53:13;;;;;;;8.47;3.30;;;23.80;1.00;;;;;;5013221;28;20645;-82
2023/09/06 03:55:41;;;;;;;7.97;3.70;;;23.80;1.00;;;;;;5031781;28;20198;-81
2023/09/06 03:58:10;;;;;;;7.40;3.50;;;23.80;1.00;;;;;;5030822;28;20175;-81
2023/09/06 04:00:39;;;;;;;7.23;3.40;;;23.80;1.00;;;;;;5035642;28;20182;-82
2023/09/06 04:03:07;;;;;;;7.60;3.20;;;23.90;1.00;;;;;;5030490;28;20240;-81
2023/09/06 04:05:34;;;;;;;6.50;3.60;;;23.70;1.00;;;;;;5017328;28;20193;-82
2023/09/06 04:08:04;;;;;;;7.70;3.83;;;23.70;1.00;;;;;;5016129;28;20244;-83
2023/09/06 04:10:38;;;;;;;7.23;3.60;;;23.70;1.00;;;;;;5015464;28;20584;-82
2023/09/06 04:13:08;;;;;;;9.60;3.93;;;23.70;1.00;;;;;;5014969;28;20716;-82
2023/09/06 04:15:35;;;;;;;8.93;4.00;;;23.70;1.00;;;;;;5015922;28;20212;-82
2023/09/06 04:18:02;;;;;;;8.97;3.93;;;23.80;1.00;;;;;;5013846;28;20175;-82
2023/09/06 04:20:36;;;;;;;8.97;4.10;;;23.70;1.00;;;;;;5016020;28;20527;-82
2023/09/06 04:23:06;;;;;;;9.03;4.50;;;23.70;1.00;;;;;;5014906;28;20178;-82
2023/09/06 04:25:44;;;;;;;8.20;4.13;;;23.60;1.00;;;;;;5015335;28;20182;-83
2023/09/06 04:28:20;;;;;;;9.47;4.60;;;23.50;1.00;;;;;;5015909;28;20177;-84
2023/09/06 04:30:46;;;;;;;8.90;4.23;;;23.40;1.00;;;;;;5015344;28;20879;-83
2023/09/06 04:33:14;;;;;;;9.17;4.63;;;23.20;1.00;;;;;;5016499;28;20221;-82
2023/09/06 04:35:48;;;;;;;8.87;4.60;;;23.30;1.00;;;;;;5015661;28;20174;-82
2023/09/06 04:38:16;;;;;;;8.83;4.30;;;23.10;1.00;;;;;;5017238;28;20221;-83
2023/09/06 04:40:46;;;;;;;10.03;4.77;;;22.90;1.00;;;;;;5014748;28;20664;-85
2023/09/06 04:43:16;;;;;;;8.83;4.77;;;22.90;1.00;;;;;;5015317;28;20264;-85
2023/09/06 04:45:42;;;;;;;9.70;4.53;;;23.00;1.00;;;;;;5013823;28;20217;-86
2023/09/06 04:48:10;;;;;;;10.13;4.57;;;22.90;1.00;;;;;;5015178;28;20569;-86
2023/09/06 04:50:40;;;;;;;9.03;4.67;;;22.90;1.00;;;;;;5014235;28;20189;-85
2023/09/06 04:53:09;;;;;;;13.63;4.90;;;22.90;1.00;;;;;;5014800;28;20171;-86
2023/09/06 04:55:35;;;;;;;10.90;5.00;;;22.90;1.00;;;;;;5013962;28;20205;-85
2023/09/06 04:58:02;;;;;;;16.33;5.40;;;22.80;1.00;;;;;;5013506;28;20645;-86
2023/09/06 05:00:36;;;;;;;11.70;5.47;;;22.90;1.00;;;;;;5013877;28;20228;-85
2023/09/06 05:03:03;;;;;;;11.77;5.03;;;22.80;1.00;;;;;;5015290;28;20204;-84
2023/09/06 05:05:29;;;;;;;13.67;5.13;;;22.70;1.00;;;;;;5015755;28;20198;-87
2023/09/06 05:07:56;;;;;;;10.33;5.20;;;22.80;1.00;;;;;;5015703;28;20177;-83
2023/09/06 05:10:22;;;;;;;11.87;5.23;;;22.90;1.00;;;;;;5014820;28;20181;-86
2023/09/06 05:12:48;;;;;;;13.27;5.30;;;22.60;2.40;;;;;;5014005;28;20173;-86
2023/09/06 05:15:14;;;;;;;15.80;6.10;;;22.60;6.70;;;;;;5012755;28;20202;-88
2023/09/06 05:17:40;;;;;;;11.73;5.90;;;22.50;9.00;;;;;;5016049;28;20177;-87
2023/09/06 05:20:33;;;;;;;15.50;5.57;;;22.40;11.20;;;;;;5016190;28;20197;-88
2023/09/06 05:23:03;;;;;;;22.23;6.33;;;22.40;13.70;;;;;;5017985;28;20200;-87
2023/09/06 05:25:30;;;;;;;14.30;5.63;;;22.40;14.50;;;;;;5016577;28;20810;-87
2023/09/06 05:28:10;;;;;;;14.53;5.60;;;22.30;16.10;;;;;;5015099;28;20173;-86
2023/09/06 05:30:44;;;;;;;17.40;6.07;;;22.20;19.80;;;;;;5015755;28;20220;-86
2023/09/06 05:33:35;;;;;;;17.27;5.33;;;22.10;22.30;;;;;;5019887;28;20216;-85
2023/09/06 05:36:01;;;;;;;21.23;6.00;;;22.00;26.40;;;;;;5020388;28;20256;-86
2023/09/06 05:38:26;;;;;;;17.30;6.07;;;21.80;34.00;;;;;;5019377;28;20216;-85
2023/09/06 05:40:53;;;;;;;19.97;6.10;;;21.80;1.00;;;;;;5017118;28;20274;-86
2023/09/06 05:43:19;;;;;;;16.23;6.07;;;21.70;1.00;;;;;;5021514;28;20680;-87
2023/09/06 05:45:48;;;;;;;17.73;6.13;;;21.70;1.00;;;;;;5018562;28;20188;-86
2023/09/06 05:48:14;;;;;;;26.47;11.90;;;21.70;1.00;;;;;;4999930;28;20213;-86
2023/09/06 05:50:40;;;;;;;17.40;5.70;;;21.80;1.00;;;;;;5014800;28;20180;-86
2023/09/06 05:53:06;;;;;;;16.67;5.87;;;21.80;1.00;;;;;;5014698;28;20177;-85
2023/09/06 05:55:31;;;;;;;23.43;7.37;;;21.90;1.00;;;;;;5014385;28;20199;-82
2023/09/06 05:57:57;;;;;;;21.77;5.97;;;21.90;1.00;;;;;;5014840;28;20251;-83
2023/09/06 06:00:49;;;;;;;20.97;5.40;;;22.00;1.00;;;;;;5017562;28;20865;-88
2023/09/06 06:03:15;;;;;;;17.07;5.90;;;21.90;1.00;;;;;;5030481;28;20166;-87
2023/09/06 06:05:41;;;;;;;14.03;6.20;;;22.10;1.00;;;;;;5034879;28;20184;-86
2023/09/06 06:08:14;;;;;;;20.23;6.53;;;22.10;1.00;;;;;;5034191;28;20168;-88
2023/09/06 06:10:40;;;;;;;19.27;6.80;;;22.20;1.00;;;;;;5031074;28;20240;-84
2023/09/06 06:13:08;;;;;;;22.90;7.23;;;22.30;1.00;;;;;;5016646;28;20177;-86
2023/09/06 06:15:35;;;;;;;17.80;6.47;;;22.20;1.00;;;;;;5014211;28;20181;-85
2023/09/06 06:18:02;;;;;;;15.20;6.03;;;22.30;1.00;;;;;;5014774;28;20255;-85
2023/09/06 06:20:28;;;;;;;20.83;6.77;;;22.40;1.00;;;;;;5014686;28;20157;-85
2023/09/06 06:22:53;;;;;;;18.67;6.80;;;22.40;1.00;;;;;;5014607;28;20172;-85
2023/09/06 06:25:19;;;;;;;22.77;6.40;;;22.40;1.00;;;;;;5013727;28;20264;-86
2023/09/06 06:27:51;;;;;;;21.47;7.00;;;22.50;1.00;;;;;;5007659;28;20187;-86
2023/09/06 06:30:18;;;;;;;18.03;6.80;;;22.60;1.00;;;;;;5010333;28;20654;-83
2023/09/06 06:32:44;;;;;;;18.97;7.03;;;22.60;1.00;;;;;;5010691;28;20626;-82
2023/09/06 06:35:12;;;;;;;20.03;6.90;;;22.70;1.00;;;;;;5010871;28;20190;-83
2023/09/06 06:37:38;;;;;;;21.70;7.17;;;22.80;1.00;;;;;;5010465;28;20173;-83
2023/09/06 06:40:05;;;;;;;24.87;6.60;;;22.90;1.00;;;;;;5010942;28;20208;-83
2023/09/06 06:42:38;;;;;;;24.50;6.87;;;23.00;1.00;;;;;;5013028;28;20673;-82
2023/09/06 06:45:07;;;;;;;18.30;6.07;;;23.20;1.00;;;;;;5009353;28;20218;-82
2023/09/06 06:47:33;;;;;;;19.73;5.70;;;23.30;1.00;;;;;;5011691;28;20669;-84
2023/09/06 06:50:03;;;;;;;17.57;6.00;;;23.30;1.00;;;;;;5012386;28;20190;-84
2023/09/06 06:52:30;;;;;;;18.80;6.10;;;23.30;1.00;;;;;;5010396;28;20178;-83
2023/09/06 06:54:56;;;;;;;19.83;6.00;;;23.40;1.00;;;;;;5012077;28;20197;-84
2023/09/06 06:57:22;;;;;;;18.73;5.80;;;23.40;1.00;;;;;;5012111;28;20217;-83
2023/09/06 06:59:48;;;;;;;20.47;6.57;;;23.50;1.00;;;;;;5013669;28;20229;-80
2023/09/06 07:02:13;;;;;;;19.20;6.40;;;23.50;1.00;;;;;;5013473;28;20213;-82
2023/09/06 07:04:39;;;;;;;18.33;6.20;;;23.60;1.00;;;;;;5012654;28;20228;-82
2023/09/06 07:07:05;;;;;;;14.33;5.60;;;23.70;1.00;;;;;;5013382;28;20661;-84
2023/09/06 07:09:31;;;;;;;19.77;6.30;;;23.50;1.00;;;;;;5010940;28;20181;-83
2023/09/06 07:11:57;;;;;;;15.03;5.83;;;23.70;1.00;;;;;;5012483;28;20189;-82
2023/09/06 07:14:23;;;;;;;20.97;6.40;;;23.70;1.00;;;;;;5011134;28;20709;-82
2023/09/06 07:16:49;;;;;;;15.30;5.83;;;23.80;1.00;;;;;;5011590;28;20178;-82
2023/09/06 07:19:14;;;;;;;17.80;6.53;;;23.90;1.00;;;;;;5012565;28;20253;-82
2023/09/06 07:21:42;;;;;;;11.77;5.43;;;23.80;1.00;;;;;;5011910;28;20260;-83
2023/09/06 07:24:09;;;;;;;15.03;5.70;;;23.70;1.00;;;;;;5012874;28;20201;-81
2023/09/06 07:26:36;;;;;;;15.13;4.70;;;23.60;1.00;;;;;;5010631;28;20227;-82
2023/09/06 07:29:01;;;;;;;12.17;5.00;;;23.70;1.00;;;;;;5011812;28;20662;-82
2023/09/06 07:31:27;;;;;;;14.00;5.27;;;23.80;1.00;;;;;;5013928;28;20213;-81
2023/09/06 07:33:53;;;;;;;13.00;5.53;;;23.90;1.00;;;;;;5013931;28;20265;-80
2023/09/06 07:36:18;;;;;;;12.33;5.23;;;24.00;1.00;;;;;;5018517;28;20177;-80
2023/09/06 07:38:44;;;;;;;12.47;5.50;;;24.10;1.00;;;;;;5032120;28;20170;-80
2023/09/06 07:41:13;;;;;;;11.33;4.73;;;24.30;1.00;;;;;;5031750;28;20170;-85
2023/09/06 07:43:39;;;;;;;10.23;4.60;;;24.40;1.00;;;;;;5027041;28;20682;-84
2023/09/06 07:46:09;;;;;;;10.73;4.60;;;24.60;1.00;;;;;;5019208;28;20182;-85
2023/09/06 07:48:36;;;;;;;10.27;4.47;;;24.70;1.00;;;;;;5016412;28;20174;-86
2023/09/06 07:51:05;;;;;;;9.83;4.17;;;24.80;1.00;;;;;;5016075;28;20240;-84
2023/09/06 07:53:31;;;;;;;11.77;4.43;;;24.80;1.00;;;;;;5006618;28;20179;-80
2023/09/06 07:55:57;;;;;;;11.80;4.50;;;24.80;99.90;;;;;;5010728;28;20195;-84
2023/09/06 07:58:23;;;;;;;9.00;4.10;;;24.70;99.90;;;;;;5015419;28;20197;-86
2023/09/06 08:00:50;;;;;;;9.47;4.40;;;24.90;99.90;;;;;;5014380;28;20178;-84
2023/09/06 08:03:16;;;;;;;8.97;3.80;;;25.00;99.90;;;;;;5015772;28;20204;-84
2023/09/06 08:05:42;;;;;;;6.77;3.37;;;25.10;99.90;;;;;;5015083;28;20190;-84
2023/09/06 08:08:11;;;;;;;7.67;3.53;;;25.20;99.90;;;;;;5013954;28;20178;-83
2023/09/06 08:10:38;;;;;;;6.07;3.10;;;25.30;99.90;;;;;;5014897;28;20215;-84
2023/09/06 08:13:04;;;;;;;6.57;3.27;;;25.40;99.90;;;;;;5014615;28;20185;-82
2023/09/06 08:15:35;;;;;;;5.60;3.23;;;25.40;99.90;;;;;;5016748;28;20656;-86
2023/09/06 08:18:03;;;;;;;6.57;2.90;;;25.60;99.90;;;;;;5015995;28;20178;-82
2023/09/06 08:20:33;;;;;;;7.93;3.20;;;25.80;99.90;;;;;;5015063;28;20170;-83
2023/09/06 08:22:59;;;;;;;8.80;3.87;;;25.90;99.90;;;;;;5013138;28;20184;-85
2023/09/06 08:25:25;;;;;;;5.73;3.10;;;25.90;99.90;;;;;;5015818;28;20252;-85
2023/09/06 08:27:51;;;;;;;6.35;2.80;;;26.00;83.10;;;;;;5015037;28;20186;-86
2023/09/06 08:30:21;;;;;;;7.50;2.90;;;26.00;10.90;;;;;;5003457;28;20285;-85
2023/09/06 08:33:03;;;;;;;10.67;3.00;;;26.00;24.10;;;;;;5009224;28;20181;-86
2023/09/06 08:35:32;;;;;;;7.80;3.20;;;26.20;77.90;;;;;;5015135;28;20346;-84
2023/09/06 08:37:58;;;;;;;5.03;2.90;;;26.40;24.10;;;;;;5010702;28;20189;-81
2023/09/06 08:40:24;;;;;;;6.18;2.95;;;26.60;1.00;;;;;;5015674;28;20545;-86
2023/09/06 08:42:52;;;;;;;8.18;3.00;;;26.80;1.00;;;;;;5013235;28;20280;-85
2023/09/06 08:45:21;;;;;;;10.93;3.42;;;27.10;1.00;;;;;;5014563;28;20218;-81
2023/09/06 08:47:50;;;;;;;7.07;3.00;;;27.20;1.00;;;;;;5018040;28;20169;-83
2023/09/06 08:50:17;;;;;;;7.13;2.95;;;27.40;99.90;;;;;;5014947;28;20187;-86
2023/09/06 08:52:44;;;;;;;7.95;2.90;;;27.60;99.90;;;;;;5018694;28;20198;-81
2023/09/06 08:55:14;;;;;;;7.55;2.72;;;27.80;1.00;;;;;;5017549;28;20198;-88
2023/09/06 08:57:47;;;;;;;9.00;3.22;;;27.80;75.90;;;;;;5016734;28;20175;-85
2023/09/06 09:00:14;;;;;;;6.55;3.45;;;27.90;20.20;;;;;;5009414;28;20563;-85
2023/09/06 09:02:40;;;;;;;7.78;3.15;;;27.70;10.40;;;;;;5011450;28;20175;-87
2023/09/06 09:05:06;;;;;;;7.75;2.88;;;27.60;1.00;;;;;;5015102;28;20214;-87
2023/09/06 09:07:33;;;;;;;6.93;3.38;;;27.50;19.30;;;;;;5018200;28;20170;-86
2023/09/06 09:10:00;;;;;;;5.10;2.75;;;27.50;1.00;;;;;;5016804;28;20201;-85
2023/09/06 09:12:28;;;;;;;5.68;3.20;;;27.40;1.00;;;;;;5017275;28;20170;-86
2023/09/06 09:14:56;;;;;;;5.35;2.50;;;27.60;1.00;;;;;;5019473;28;20202;-87
2023/09/06 09:17:28;;;;;;;4.75;2.85;;;27.70;1.00;;;;;;5016800;28;20791;-88
2023/09/06 09:19:56;;;;;;;6.18;2.65;;;27.60;1.00;;;;;;5015651;28;20174;-84
2023/09/06 09:22:34;;;;;;;7.85;2.92;;;27.70;1.00;;;;;;5016416;28;20253;-84
2023/09/06 09:25:25;;;;;;;8.02;3.30;;;27.90;99.90;;;;;;5016817;28;20224;-82
2023/09/06 09:27:55;;;;;;;7.72;3.42;;;27.70;99.90;;;;;;5015531;28;20178;-85
2023/09/06 09:30:23;;;;;;;6.65;3.58;;;27.80;1.00;;;;;;5017048;28;20190;-84
2023/09/06 09:32:57;;;;;;;7.07;3.58;;;27.60;99.90;;;;;;5015658;28;20189;-84
2023/09/06 09:35:26;;;;;;;7.47;3.13;;;27.50;1.00;;;;;;5016345;28;20261;-87
2023/09/06 09:37:52;;;;;;;7.68;3.47;;;27.50;1.00;;;;;;5015349;28;20171;-87
2023/09/06 09:40:20;;;;;;;5.63;3.35;;;27.60;1.00;;;;;;5015152;28;20574;-89
2023/09/06 09:42:57;;;;;;;6.90;3.38;;;27.60;1.00;;;;;;5018291;28;20173;-88
2023/09/06 09:45:30;;;;;;;8.07;3.47;;;27.50;1.00;;;;;;5016912;28;20201;-88
2023/09/06 09:47:59;;;;;;;7.55;2.83;;;27.60;1.00;;;;;;5016578;28;20253;-86
2023/09/06 09:50:26;;;;;;;6.15;2.72;;;27.50;1.00;;;;;;5024773;28;20180;-85
2023/09/06 09:52:53;;;;;;;8.18;3.33;;;27.60;1.00;;;;;;5021511;28;20247;-86
2023/09/06 09:55:22;;;;;;;7.28;2.92;;;27.60;1.00;;;;;;5019931;28;20284;-86
2023/09/06 09:57:49;;;;;;;6.95;3.20;;;27.60;99.90;;;;;;5026235;28;20163;-83
2023/09/06 10:00:15;;;;;;;6.50;2.90;;;27.60;99.90;;;;;;5029127;28;20216;-85
2023/09/06 10:02:48;;;;;;;5.72;2.50;;;27.60;99.90;;;;;;5016724;28;20174;-87
2023/09/06 10:05:17;;;;;;;6.32;2.72;;;27.60;99.90;;;;;;5012698;28;20341;-87
2023/09/06 10:07:43;;;;;;;4.30;2.53;;;27.60;1.00;;;;;;5015308;28;20626;-87
2023/09/06 10:10:10;;;;;;;5.45;2.70;;;27.60;1.00;;;;;;5015594;28;20177;-87
2023/09/06 10:12:43;;;;;;;6.50;2.58;;;27.60;99.90;;;;;;5019041;28;20218;-87
2023/09/06 10:15:13;;;;;;;6.25;2.10;;;27.70;25.70;;;;;;5031842;28;20157;-85
2023/09/06 10:17:40;;;;;;;5.03;2.63;;;27.80;1.00;;;;;;5028936;28;20205;-87
2023/09/06 10:20:14;;;;;;;6.35;2.80;;;27.90;1.00;;;;;;5032534;28;20146;-84
2023/09/06 10:22:43;;;;;;;6.25;2.60;;;28.10;1.00;;;;;;5029848;28;20260;-85
2023/09/06 10:25:10;;;;;;;5.10;2.47;;;28.10;99.90;;;;;;5027620;28;20209;-86
2023/09/06 10:27:55;;;;;;;4.80;1.75;;;28.10;1.00;;;;;;5030022;28;20178;-85
2023/09/06 10:30:48;;;;;;;3.40;2.33;;;28.20;99.90;;;;;;5031690;28;20181;-86
2023/09/06 10:33:36;;;;;;;3.20;1.92;;;28.30;99.90;;;;;;5027283;28;20177;-85
2023/09/06 10:36:15;;;;;;;3.85;2.35;;;28.30;1.00;;;;;;5030982;28;20174;-86
2023/09/06 10:38:55;;;;;;;2.92;1.98;;;28.40;1.00;;;;;;5032724;28;20170;-87
2023/09/06 10:41:26;;;;;;;6.07;2.08;;;28.30;1.00;;;;;;5030964;28;20174;-85
2023/09/06 10:44:01;;;;;;;3.33;1.90;;;28.40;99.90;;;;;;5032969;28;20209;-85
2023/09/06 10:46:36;;;;;;;6.07;2.15;;;28.40;99.90;;;;;;5024548;28;20177;-86
2023/09/06 10:49:25;;;;;;;4.90;2.25;;;28.50;99.90;;;;;;5019951;28;20237;-88
2023/09/06 10:51:55;;;;;;;4.07;1.90;;;28.40;1.00;;;;;;5024107;28;20181;-87
2023/09/06 10:54:47;;;;;;;3.67;2.55;;;28.40;99.90;;;;;;5021717;28;20269;-87
2023/09/06 10:57:15;;;;;;;6.90;2.35;;;28.40;20.50;;;;;;5006632;28;20772;-88
2023/09/06 11:00:15;;;;;;;4.10;2.35;;;28.60;99.90;;;;;;5023371;28;20198;-87
2023/09/06 11:02:42;;;;;;;5.43;2.58;;;28.60;1.00;;;;;;5024919;28;20188;-83
2023/09/06 11:05:11;;;;;;;4.18;2.60;;;28.80;1.00;;;;;;5021616;28;20209;-82
2023/09/06 11:07:41;;;;;;;4.75;2.40;;;28.80;1.00;;;;;;5020121;28;20174;-82
2023/09/06 11:10:07;;;;;;;4.00;2.20;;;28.70;99.90;;;;;;5017946;28;20613;-83
2023/09/06 11:12:34;;;;;;;3.38;2.13;;;28.60;1.00;;;;;;5014935;28;20538;-85
2023/09/06 11:15:00;;;;;;;5.22;2.17;;;28.50;1.00;;;;;;5013645;28;20296;-82
2023/09/06 11:17:26;;;;;;;3.58;2.30;;;28.60;1.00;;;;;;5012572;28;20166;-81
2023/09/06 11:19:53;;;;;;;4.15;1.90;;;28.60;99.90;;;;;;5011964;28;20231;-84
2023/09/06 11:22:19;;;;;;;3.08;1.80;;;28.70;99.90;;;;;;5012823;28;20174;-84
2023/09/06 11:24:45;;;;;;;3.58;1.90;;;28.80;1.00;;;;;;5014599;28;20201;-85
2023/09/06 11:27:22;;;;;;;2.88;1.90;;;28.90;1.00;;;;;;5013663;28;20173;-82
2023/09/06 11:30:10;;;;;;;2.72;1.50;;;29.00;99.90;;;;;;5016430;28;20166;-85
2023/09/06 11:32:37;;;;;;;4.38;1.83;;;29.00;1.00;;;;;;5015526;28;20227;-81
2023/09/06 11:35:07;;;;;;;4.47;1.77;;;29.10;1.00;;;;;;5016818;28;20178;-81
2023/09/06 11:37:36;;;;;;;6.97;1.90;;;29.30;99.90;;;;;;5017513;28;20238;-82
2023/09/06 11:40:12;;;;;;;4.45;1.80;;;29.30;99.90;;;;;;5015295;28;20657;-83
2023/09/06 11:42:46;;;;;;;3.33;1.83;;;29.40;99.90;;;;;;5014741;28;20194;-85
2023/09/06 11:45:16;;;;;;;5.15;2.17;;;29.40;99.90;;;;;;5013720;28;20210;-84
2023/09/06 11:47:49;;;;;;;4.35;2.13;;;29.60;99.90;;;;;;5017329;28;20167;-83
2023/09/06 11:50:21;;;;;;;5.05;2.20;;;29.60;99.90;;;;;;5026423;28;20175;-82
2023/09/06 11:52:49;;;;;;;4.38;1.88;;;29.50;1.00;;;;;;5023314;28;20258;-84
2023/09/06 11:55:16;;;;;;;2.83;1.80;;;29.60;99.90;;;;;;5013923;28;20190;-81
2023/09/06 11:57:50;;;;;;;3.83;2.08;;;29.50;99.90;;;;;;5012382;28;20182;-81
2023/09/06 12:00:27;;;;;;;4.05;1.90;;;29.50;99.90;;;;;;5012693;28;20485;-85
2023/09/06 12:03:21;;;;;;;2.33;1.60;;;29.60;99.90;;;;;;5014620;28;20185;-84
2023/09/06 12:05:49;;;;;;;3.60;1.50;;;29.70;1.00;;;;;;5015837;28;20638;-84
2023/09/06 12:08:21;;;;;;;8.60;2.00;;;29.60;1.00;;;;;;5015755;28;20237;-85
2023/09/06 12:10:52;;;;;;;5.80;1.60;;;29.50;1.00;;;;;;5016945;28;20167;-87
2023/09/06 12:13:28;;;;;;;3.35;2.17;;;29.50;1.00;;;;;;5016698;28;20239;-83
2023/09/06 12:15:55;;;;;;;3.03;1.80;;;29.50;1.00;;;;;;5016546;28;20162;-87
2023/09/06 12:18:24;;;;;;;4.05;2.08;;;29.80;1.00;;;;;;5015830;28;20158;-87
2023/09/06 12:20:50;;;;;;;4.13;1.98;;;29.90;1.00;;;;;;5015817;28;20225;-87
2023/09/06 12:23:20;;;;;;;4.75;2.05;;;30.00;1.00;;;;;;5017230;28;20638;-87
2023/09/06 12:25:45;;;;;;;3.75;2.00;;;30.10;1.00;;;;;;5018451;28;20229;-87
2023/09/06 12:28:11;;;;;;;5.43;1.90;;;30.10;1.00;;;;;;5017283;28;20170;-87
2023/09/06 12:30:37;;;;;;;3.38;1.98;;;30.10;1.00;;;;;;5017087;28;20260;-87
2023/09/06 12:33:03;;;;;;;3.53;1.73;;;30.00;99.90;;;;;;5021300;28;20524;-86
2023/09/06 12:35:29;;;;;;;3.10;2.00;;;30.00;99.90;;;;;;5019730;28;20216;-83
2023/09/06 12:37:57;;;;;;;4.53;2.10;;;30.00;99.90;;;;;;5019817;28;20174;-87
2023/09/06 12:40:27;;;;;;;5.22;3.10;;;30.00;1.00;;;;;;5017862;28;20171;-85
2023/09/06 12:42:53;;;;;;;3.75;1.90;;;30.10;1.00;;;;;;5018098;28;20181;-86
2023/09/06 12:45:27;;;;;;;3.15;1.70;;;30.30;99.90;;;;;;5020093;28;20206;-88
2023/09/06 12:47:54;;;;;;;2.80;1.70;;;30.40;99.90;;;;;;5018832;28;20545;-86
2023/09/06 12:50:22;;;;;;;3.15;1.65;;;30.30;99.90;;;;;;5019765;28;20175;-88
2023/09/06 12:52:48;;;;;;;4.13;1.90;;;30.30;99.90;;;;;;5017930;28;20174;-85
2023/09/06 12:55:14;;;;;;;3.83;1.63;;;30.30;99.90;;;;;;5019580;28;20186;-82
2023/09/06 12:57:40;;;;;;;3.55;1.70;;;30.20;99.90;;;;;;5016942;28;20225;-85
2023/09/06 13:00:07;;;;;;;3.92;1.65;;;30.30;99.90;;;;;;5017798;28;20193;-84
2023/09/06 13:02:33;;;;;;;4.10;1.45;;;30.20;99.90;;;;;;5018254;28;20190;-83